sensor_id;sensor_type;location;lat;lon;timestamp;P1;durP1;ratioP1;P2;durP2;ratioP2
51248;SDS011;39642;47.556;18.728;2024-02-14T00:00:08;8.85;;;2.85;;
51248;SDS011;39642;47.556;18.728;2024-02-14T00:02:37;8.05;;;2.85;;
51248;SDS011;39642;47.556;18.728;2024-02-14T00:05:03;8.70;;;2.75;;
51248;SDS011;39642;47.556;18.728;2024-02-14T00:07:30;9.65;;;2.70;;
51248;SDS011;39642;47.556;18.728;2024-02-14T00:09:55;8.48;;;2.90;;
51248;SDS011;39642;47.556;18.728;2024-02-14T00:12:21;8.07;;;2.92;;
51248;SDS011;39642;47.556;18.728;2024-02-14T00:14:50;8.15;;;2.83;;
51248;SDS011;39642;47.556;18.728;2024-02-14T00:17:16;8.40;;;2.90;;
51248;SDS011;39642;47.556;18.728;2024-02-14T00:19:42;8.15;;;2.67;;
51248;SDS011;39642;47.556;18.728;2024-02-14T00:22:08;7.60;;;2.60;;
51248;SDS011;39642;47.556;18.728;2024-02-14T00:24:33;8.25;;;2.50;;
51248;SDS011;39642;47.556;18.728;2024-02-14T00:27:01;8.65;;;2.60;;
51248;SDS011;39642;47.556;18.728;2024-02-14T00:29:28;7.62;;;2.62;;
51248;SDS011;39642;47.556;18.728;2024-02-14T00:31:54;9.27;;;3.03;;
51248;SDS011;39642;47.556;18.728;2024-02-14T00:34:20;10.00;;;2.70;;
51248;SDS011;39642;47.556;18.728;2024-02-14T00:36:46;8.30;;;2.80;;
51248;SDS011;39642;47.556;18.728;2024-02-14T00:39:12;7.47;;;2.40;;
51248;SDS011;39642;47.556;18.728;2024-02-14T00:41:38;8.15;;;2.78;;
51248;SDS011;39642;47.556;18.728;2024-02-14T00:44:04;8.30;;;2.50;;
51248;SDS011;39642;47.556;18.728;2024-02-14T00:46:30;7.50;;;2.50;;
51248;SDS011;39642;47.556;18.728;2024-02-14T00:48:56;7.62;;;2.67;;
51248;SDS011;39642;47.556;18.728;2024-02-14T00:51:21;8.07;;;2.87;;
51248;SDS011;39642;47.556;18.728;2024-02-14T00:53:47;7.00;;;2.47;;
51248;SDS011;39642;47.556;18.728;2024-02-14T00:56:13;7.37;;;2.30;;
51248;SDS011;39642;47.556;18.728;2024-02-14T00:58:39;8.82;;;2.70;;
51248;SDS011;39642;47.556;18.728;2024-02-14T01:01:05;8.95;;;2.50;;
51248;SDS011;39642;47.556;18.728;2024-02-14T01:03:31;7.62;;;2.50;;
51248;SDS011;39642;47.556;18.728;2024-02-14T01:05:57;8.88;;;2.72;;
51248;SDS011;39642;47.556;18.728;2024-02-14T01:08:23;7.97;;;2.60;;
51248;SDS011;39642;47.556;18.728;2024-02-14T01:10:49;8.27;;;2.60;;
51248;SDS011;39642;47.556;18.728;2024-02-14T01:13:17;7.00;;;2.47;;
51248;SDS011;39642;47.556;18.728;2024-02-14T01:15:44;6.97;;;2.25;;
51248;SDS011;39642;47.556;18.728;2024-02-14T01:18:09;7.55;;;2.50;;
51248;SDS011;39642;47.556;18.728;2024-02-14T01:20:35;8.25;;;2.62;;
51248;SDS011;39642;47.556;18.728;2024-02-14T01:23:03;8.25;;;2.60;;
51248;SDS011;39642;47.556;18.728;2024-02-14T01:25:29;7.87;;;2.40;;
51248;SDS011;39642;47.556;18.728;2024-02-14T01:27:55;7.47;;;2.50;;
51248;SDS011;39642;47.556;18.728;2024-02-14T01:30:21;7.47;;;2.40;;
51248;SDS011;39642;47.556;18.728;2024-02-14T01:32:47;7.28;;;2.60;;
51248;SDS011;39642;47.556;18.728;2024-02-14T01:35:13;7.35;;;2.65;;
51248;SDS011;39642;47.556;18.728;2024-02-14T01:37:39;7.93;;;2.83;;
51248;SDS011;39642;47.556;18.728;2024-02-14T01:40:05;8.15;;;2.72;;
51248;SDS011;39642;47.556;18.728;2024-02-14T01:42:33;8.48;;;2.50;;
51248;SDS011;39642;47.556;18.728;2024-02-14T01:44:59;8.38;;;2.55;;
51248;SDS011;39642;47.556;18.728;2024-02-14T01:47:24;7.87;;;2.60;;
51248;SDS011;39642;47.556;18.728;2024-02-14T01:49:50;8.02;;;2.50;;
51248;SDS011;39642;47.556;18.728;2024-02-14T01:52:16;8.35;;;2.70;;
51248;SDS011;39642;47.556;18.728;2024-02-14T01:54:43;7.20;;;2.40;;
51248;SDS011;39642;47.556;18.728;2024-02-14T01:57:09;7.80;;;2.62;;
51248;SDS011;39642;47.556;18.728;2024-02-14T01:59:36;7.47;;;2.40;;
51248;SDS011;39642;47.556;18.728;2024-02-14T02:02:03;8.13;;;2.70;;
51248;SDS011;39642;47.556;18.728;2024-02-14T02:04:32;7.68;;;2.58;;
51248;SDS011;39642;47.556;18.728;2024-02-14T02:06:59;8.02;;;2.78;;
51248;SDS011;39642;47.556;18.728;2024-02-14T02:09:25;7.70;;;2.42;;
51248;SDS011;39642;47.556;18.728;2024-02-14T02:11:51;8.55;;;2.60;;
51248;SDS011;39642;47.556;18.728;2024-02-14T02:14:21;8.73;;;2.40;;
51248;SDS011;39642;47.556;18.728;2024-02-14T02:16:48;7.95;;;2.67;;
51248;SDS011;39642;47.556;18.728;2024-02-14T02:19:14;7.00;;;2.37;;
51248;SDS011;39642;47.556;18.728;2024-02-14T02:21:41;7.30;;;2.40;;
51248;SDS011;39642;47.556;18.728;2024-02-14T02:24:11;7.70;;;2.50;;
51248;SDS011;39642;47.556;18.728;2024-02-14T02:26:37;7.45;;;2.25;;
51248;SDS011;39642;47.556;18.728;2024-02-14T02:29:03;6.97;;;2.28;;
51248;SDS011;39642;47.556;18.728;2024-02-14T02:31:30;8.20;;;2.53;;
51248;SDS011;39642;47.556;18.728;2024-02-14T02:33:56;7.50;;;2.60;;
51248;SDS011;39642;47.556;18.728;2024-02-14T02:36:23;8.82;;;2.70;;
51248;SDS011;39642;47.556;18.728;2024-02-14T02:38:50;6.78;;;2.40;;
51248;SDS011;39642;47.556;18.728;2024-02-14T02:41:16;6.53;;;2.10;;
51248;SDS011;39642;47.556;18.728;2024-02-14T02:43:42;8.30;;;2.20;;
51248;SDS011;39642;47.556;18.728;2024-02-14T02:46:09;7.18;;;2.45;;
51248;SDS011;39642;47.556;18.728;2024-02-14T02:48:35;9.25;;;2.62;;
51248;SDS011;39642;47.556;18.728;2024-02-14T02:51:01;7.95;;;2.53;;
51248;SDS011;39642;47.556;18.728;2024-02-14T02:53:27;7.50;;;2.67;;
51248;SDS011;39642;47.556;18.728;2024-02-14T02:55:53;6.82;;;2.28;;
51248;SDS011;39642;47.556;18.728;2024-02-14T02:58:20;7.50;;;2.40;;
51248;SDS011;39642;47.556;18.728;2024-02-14T03:00:46;7.47;;;2.40;;
51248;SDS011;39642;47.556;18.728;2024-02-14T03:03:14;7.18;;;2.33;;
51248;SDS011;39642;47.556;18.728;2024-02-14T03:05:41;7.53;;;2.33;;
51248;SDS011;39642;47.556;18.728;2024-02-14T03:08:10;8.13;;;2.47;;
51248;SDS011;39642;47.556;18.728;2024-02-14T03:10:40;7.65;;;2.30;;
51248;SDS011;39642;47.556;18.728;2024-02-14T03:13:06;8.23;;;2.60;;
51248;SDS011;39642;47.556;18.728;2024-02-14T03:15:37;8.45;;;2.87;;
51248;SDS011;39642;47.556;18.728;2024-02-14T03:18:04;7.22;;;2.37;;
51248;SDS011;39642;47.556;18.728;2024-02-14T03:20:38;7.50;;;2.20;;
51248;SDS011;39642;47.556;18.728;2024-02-14T03:23:04;8.00;;;2.58;;
51248;SDS011;39642;47.556;18.728;2024-02-14T03:25:29;8.00;;;2.50;;
51248;SDS011;39642;47.556;18.728;2024-02-14T03:27:55;8.45;;;2.70;;
51248;SDS011;39642;47.556;18.728;2024-02-14T03:30:22;7.25;;;2.28;;
51248;SDS011;39642;47.556;18.728;2024-02-14T03:32:49;7.47;;;2.47;;
51248;SDS011;39642;47.556;18.728;2024-02-14T03:35:16;7.22;;;2.28;;
51248;SDS011;39642;47.556;18.728;2024-02-14T03:37:42;7.82;;;2.53;;
51248;SDS011;39642;47.556;18.728;2024-02-14T03:40:13;8.35;;;2.70;;
51248;SDS011;39642;47.556;18.728;2024-02-14T03:42:38;8.05;;;2.50;;
51248;SDS011;39642;47.556;18.728;2024-02-14T03:45:06;7.28;;;2.42;;
51248;SDS011;39642;47.556;18.728;2024-02-14T03:47:34;7.90;;;2.55;;
51248;SDS011;39642;47.556;18.728;2024-02-14T03:50:01;6.87;;;2.50;;
51248;SDS011;39642;47.556;18.728;2024-02-14T03:52:30;8.30;;;2.78;;
51248;SDS011;39642;47.556;18.728;2024-02-14T03:54:57;7.72;;;2.53;;
51248;SDS011;39642;47.556;18.728;2024-02-14T03:57:25;8.07;;;2.50;;
51248;SDS011;39642;47.556;18.728;2024-02-14T03:59:59;6.90;;;2.33;;
51248;SDS011;39642;47.556;18.728;2024-02-14T04:02:28;8.57;;;2.60;;
51248;SDS011;39642;47.556;18.728;2024-02-14T04:04:54;7.45;;;2.40;;
51248;SDS011;39642;47.556;18.728;2024-02-14T04:07:20;7.35;;;2.40;;
51248;SDS011;39642;47.556;18.728;2024-02-14T04:09:45;7.30;;;2.35;;
51248;SDS011;39642;47.556;18.728;2024-02-14T04:12:11;7.25;;;2.47;;
51248;SDS011;39642;47.556;18.728;2024-02-14T04:14:37;7.20;;;2.33;;
51248;SDS011;39642;47.556;18.728;2024-02-14T04:17:04;7.55;;;2.40;;
51248;SDS011;39642;47.556;18.728;2024-02-14T04:19:33;7.78;;;2.70;;
51248;SDS011;39642;47.556;18.728;2024-02-14T04:21:59;7.90;;;2.42;;
51248;SDS011;39642;47.556;18.728;2024-02-14T04:24:25;7.40;;;2.40;;
51248;SDS011;39642;47.556;18.728;2024-02-14T04:26:52;6.72;;;2.30;;
51248;SDS011;39642;47.556;18.728;2024-02-14T04:29:20;7.43;;;2.40;;
51248;SDS011;39642;47.556;18.728;2024-02-14T04:31:46;7.45;;;2.40;;
51248;SDS011;39642;47.556;18.728;2024-02-14T04:34:12;8.27;;;2.47;;
51248;SDS011;39642;47.556;18.728;2024-02-14T04:36:39;7.35;;;2.50;;
51248;SDS011;39642;47.556;18.728;2024-02-14T04:39:05;7.35;;;2.45;;
51248;SDS011;39642;47.556;18.728;2024-02-14T04:41:32;7.87;;;2.37;;
51248;SDS011;39642;47.556;18.728;2024-02-14T04:44:05;7.97;;;2.40;;
51248;SDS011;39642;47.556;18.728;2024-02-14T04:46:34;7.25;;;2.30;;
51248;SDS011;39642;47.556;18.728;2024-02-14T04:49:01;7.82;;;2.50;;
51248;SDS011;39642;47.556;18.728;2024-02-14T04:51:30;7.65;;;2.33;;
51248;SDS011;39642;47.556;18.728;2024-02-14T04:53:57;7.20;;;2.40;;
51248;SDS011;39642;47.556;18.728;2024-02-14T04:56:26;7.30;;;2.60;;
51248;SDS011;39642;47.556;18.728;2024-02-14T04:58:55;7.22;;;2.40;;
51248;SDS011;39642;47.556;18.728;2024-02-14T05:01:21;8.18;;;2.50;;
51248;SDS011;39642;47.556;18.728;2024-02-14T05:03:47;7.50;;;2.42;;
51248;SDS011;39642;47.556;18.728;2024-02-14T05:06:15;7.85;;;2.40;;
51248;SDS011;39642;47.556;18.728;2024-02-14T05:08:41;7.87;;;2.47;;
51248;SDS011;39642;47.556;18.728;2024-02-14T05:11:07;7.22;;;2.37;;
51248;SDS011;39642;47.556;18.728;2024-02-14T05:13:33;8.68;;;2.58;;
51248;SDS011;39642;47.556;18.728;2024-02-14T05:16:02;6.65;;;2.28;;
51248;SDS011;39642;47.556;18.728;2024-02-14T05:18:28;7.18;;;2.40;;
51248;SDS011;39642;47.556;18.728;2024-02-14T05:20:54;7.82;;;2.53;;
51248;SDS011;39642;47.556;18.728;2024-02-14T05:23:20;7.85;;;2.50;;
51248;SDS011;39642;47.556;18.728;2024-02-14T05:25:46;8.10;;;2.70;;
51248;SDS011;39642;47.556;18.728;2024-02-14T05:28:13;6.87;;;2.40;;
51248;SDS011;39642;47.556;18.728;2024-02-14T05:30:40;8.40;;;2.72;;
51248;SDS011;39642;47.556;18.728;2024-02-14T05:33:06;7.95;;;2.90;;
51248;SDS011;39642;47.556;18.728;2024-02-14T05:35:32;8.55;;;2.90;;
51248;SDS011;39642;47.556;18.728;2024-02-14T05:37:58;9.10;;;2.80;;
51248;SDS011;39642;47.556;18.728;2024-02-14T05:40:24;8.77;;;2.75;;
51248;SDS011;39642;47.556;18.728;2024-02-14T05:42:50;8.27;;;2.65;;
51248;SDS011;39642;47.556;18.728;2024-02-14T06:00:31;8.82;;;2.90;;
51248;SDS011;39642;47.556;18.728;2024-02-14T06:02:58;8.02;;;2.87;;
51248;SDS011;39642;47.556;18.728;2024-02-14T06:05:23;8.25;;;3.20;;
51248;SDS011;39642;47.556;18.728;2024-02-14T06:07:49;12.07;;;3.42;;
51248;SDS011;39642;47.556;18.728;2024-02-14T06:10:15;8.75;;;2.75;;
51248;SDS011;39642;47.556;18.728;2024-02-14T06:12:43;11.10;;;3.53;;
51248;SDS011;39642;47.556;18.728;2024-02-14T06:15:09;18.00;;;4.70;;
51248;SDS011;39642;47.556;18.728;2024-02-14T06:17:35;17.12;;;4.32;;
51248;SDS011;39642;47.556;18.728;2024-02-14T06:20:04;12.73;;;3.80;;
51248;SDS011;39642;47.556;18.728;2024-02-14T06:22:33;27.15;;;7.43;;
51248;SDS011;39642;47.556;18.728;2024-02-14T06:25:02;20.27;;;6.15;;
51248;SDS011;39642;47.556;18.728;2024-02-14T06:27:31;19.98;;;4.47;;
51248;SDS011;39642;47.556;18.728;2024-02-14T06:29:58;22.90;;;6.03;;
51248;SDS011;39642;47.556;18.728;2024-02-14T06:32:26;21.90;;;4.90;;
51248;SDS011;39642;47.556;18.728;2024-02-14T06:34:52;20.08;;;5.70;;
51248;SDS011;39642;47.556;18.728;2024-02-14T06:37:18;20.88;;;7.22;;
51248;SDS011;39642;47.556;18.728;2024-02-14T06:39:44;16.60;;;4.85;;
51248;SDS011;39642;47.556;18.728;2024-02-14T06:42:10;19.98;;;5.95;;
51248;SDS011;39642;47.556;18.728;2024-02-14T06:44:36;16.25;;;6.55;;
51248;SDS011;39642;47.556;18.728;2024-02-14T06:47:02;11.85;;;4.78;;
51248;SDS011;39642;47.556;18.728;2024-02-14T06:49:28;22.48;;;6.75;;
51248;SDS011;39642;47.556;18.728;2024-02-14T06:51:53;30.80;;;8.52;;
51248;SDS011;39642;47.556;18.728;2024-02-14T06:54:19;24.02;;;8.07;;
51248;SDS011;39642;47.556;18.728;2024-02-14T06:56:45;32.92;;;10.25;;
51248;SDS011;39642;47.556;18.728;2024-02-14T06:59:11;15.05;;;5.78;;
51248;SDS011;39642;47.556;18.728;2024-02-14T07:01:37;24.67;;;8.35;;
51248;SDS011;39642;47.556;18.728;2024-02-14T07:04:04;17.25;;;5.40;;
51248;SDS011;39642;47.556;18.728;2024-02-14T07:06:30;22.62;;;7.25;;
51248;SDS011;39642;47.556;18.728;2024-02-14T07:08:57;19.05;;;6.90;;
51248;SDS011;39642;47.556;18.728;2024-02-14T07:11:23;22.23;;;6.93;;
51248;SDS011;39642;47.556;18.728;2024-02-14T07:13:49;22.17;;;7.32;;
51248;SDS011;39642;47.556;18.728;2024-02-14T07:16:16;22.45;;;7.00;;
51248;SDS011;39642;47.556;18.728;2024-02-14T07:18:43;21.67;;;7.10;;
51248;SDS011;39642;47.556;18.728;2024-02-14T07:21:09;21.20;;;7.07;;
51248;SDS011;39642;47.556;18.728;2024-02-14T07:23:36;21.02;;;7.12;;
51248;SDS011;39642;47.556;18.728;2024-02-14T07:26:03;23.75;;;6.43;;
51248;SDS011;39642;47.556;18.728;2024-02-14T07:28:30;23.58;;;7.50;;
51248;SDS011;39642;47.556;18.728;2024-02-14T07:30:57;22.33;;;7.28;;
51248;SDS011;39642;47.556;18.728;2024-02-14T07:33:24;34.08;;;8.13;;
51248;SDS011;39642;47.556;18.728;2024-02-14T07:35:50;25.23;;;7.35;;
51248;SDS011;39642;47.556;18.728;2024-02-14T07:38:16;18.45;;;6.62;;
51248;SDS011;39642;47.556;18.728;2024-02-14T07:40:43;24.65;;;6.80;;
51248;SDS011;39642;47.556;18.728;2024-02-14T07:43:09;24.85;;;7.32;;
51248;SDS011;39642;47.556;18.728;2024-02-14T07:45:34;23.08;;;6.68;;
51248;SDS011;39642;47.556;18.728;2024-02-14T07:48:00;26.55;;;7.45;;
51248;SDS011;39642;47.556;18.728;2024-02-14T07:50:28;26.12;;;7.00;;
51248;SDS011;39642;47.556;18.728;2024-02-14T07:52:54;33.88;;;7.00;;
51248;SDS011;39642;47.556;18.728;2024-02-14T07:55:22;27.98;;;7.78;;
51248;SDS011;39642;47.556;18.728;2024-02-14T07:57:49;32.28;;;8.68;;
51248;SDS011;39642;47.556;18.728;2024-02-14T08:00:15;33.45;;;8.70;;
51248;SDS011;39642;47.556;18.728;2024-02-14T08:02:48;27.73;;;7.57;;
51248;SDS011;39642;47.556;18.728;2024-02-14T08:05:14;27.00;;;7.53;;
51248;SDS011;39642;47.556;18.728;2024-02-14T08:07:40;25.67;;;7.05;;
51248;SDS011;39642;47.556;18.728;2024-02-14T08:10:06;28.92;;;7.30;;
51248;SDS011;39642;47.556;18.728;2024-02-14T08:12:32;33.30;;;7.97;;
51248;SDS011;39642;47.556;18.728;2024-02-14T08:14:58;21.52;;;6.70;;
51248;SDS011;39642;47.556;18.728;2024-02-14T08:17:29;23.00;;;7.32;;
51248;SDS011;39642;47.556;18.728;2024-02-14T08:19:56;25.52;;;7.53;;
51248;SDS011;39642;47.556;18.728;2024-02-14T08:22:21;26.90;;;7.70;;
51248;SDS011;39642;47.556;18.728;2024-02-14T08:24:47;21.05;;;7.32;;
51248;SDS011;39642;47.556;18.728;2024-02-14T08:27:13;21.67;;;7.20;;
51248;SDS011;39642;47.556;18.728;2024-02-14T08:29:39;27.90;;;7.40;;
51248;SDS011;39642;47.556;18.728;2024-02-14T08:32:05;23.33;;;6.40;;
51248;SDS011;39642;47.556;18.728;2024-02-14T08:34:33;24.75;;;7.18;;
51248;SDS011;39642;47.556;18.728;2024-02-14T08:37:00;17.25;;;6.18;;
51248;SDS011;39642;47.556;18.728;2024-02-14T08:39:26;21.40;;;6.53;;
51248;SDS011;39642;47.556;18.728;2024-02-14T08:41:52;17.52;;;6.50;;
51248;SDS011;39642;47.556;18.728;2024-02-14T08:44:18;33.92;;;7.20;;
51248;SDS011;39642;47.556;18.728;2024-02-14T08:46:44;24.48;;;7.10;;
51248;SDS011;39642;47.556;18.728;2024-02-14T08:49:13;19.90;;;6.75;;
51248;SDS011;39642;47.556;18.728;2024-02-14T08:51:39;18.50;;;6.47;;
51248;SDS011;39642;47.556;18.728;2024-02-14T08:54:05;19.15;;;6.53;;
51248;SDS011;39642;47.556;18.728;2024-02-14T08:56:32;17.30;;;6.47;;
51248;SDS011;39642;47.556;18.728;2024-02-14T08:59:02;34.40;;;7.87;;
51248;SDS011;39642;47.556;18.728;2024-02-14T09:01:29;28.17;;;6.97;;
51248;SDS011;39642;47.556;18.728;2024-02-14T09:03:55;25.20;;;6.43;;
51248;SDS011;39642;47.556;18.728;2024-02-14T09:06:22;20.20;;;6.03;;
51248;SDS011;39642;47.556;18.728;2024-02-14T09:08:48;23.80;;;6.30;;
51248;SDS011;39642;47.556;18.728;2024-02-14T09:11:16;26.60;;;5.70;;
51248;SDS011;39642;47.556;18.728;2024-02-14T09:13:41;22.48;;;6.15;;
51248;SDS011;39642;47.556;18.728;2024-02-14T09:16:08;23.40;;;5.65;;
51248;SDS011;39642;47.556;18.728;2024-02-14T09:18:34;22.42;;;5.60;;
51248;SDS011;39642;47.556;18.728;2024-02-14T09:21:00;19.55;;;4.97;;
51248;SDS011;39642;47.556;18.728;2024-02-14T09:23:29;17.90;;;5.00;;
51248;SDS011;39642;47.556;18.728;2024-02-14T09:25:55;16.27;;;4.57;;
51248;SDS011;39642;47.556;18.728;2024-02-14T09:28:22;16.23;;;4.47;;
51248;SDS011;39642;47.556;18.728;2024-02-14T09:30:48;14.75;;;4.68;;
51248;SDS011;39642;47.556;18.728;2024-02-14T09:33:14;16.48;;;4.60;;
51248;SDS011;39642;47.556;18.728;2024-02-14T09:35:41;20.52;;;4.65;;
51248;SDS011;39642;47.556;18.728;2024-02-14T09:38:12;17.70;;;5.20;;
51248;SDS011;39642;47.556;18.728;2024-02-14T09:40:42;17.25;;;5.45;;
51248;SDS011;39642;47.556;18.728;2024-02-14T09:46:06;19.60;;;5.60;;
51248;SDS011;39642;47.556;18.728;2024-02-14T09:48:33;17.37;;;5.57;;
51248;SDS011;39642;47.556;18.728;2024-02-14T09:50:59;24.30;;;6.62;;
51248;SDS011;39642;47.556;18.728;2024-02-14T09:53:25;23.40;;;6.12;;
51248;SDS011;39642;47.556;18.728;2024-02-14T09:55:54;41.55;;;6.35;;
51248;SDS011;39642;47.556;18.728;2024-02-14T09:58:20;38.03;;;5.80;;
51248;SDS011;39642;47.556;18.728;2024-02-14T10:00:46;56.65;;;7.82;;
51248;SDS011;39642;47.556;18.728;2024-02-14T10:03:12;36.90;;;6.50;;
51248;SDS011;39642;47.556;18.728;2024-02-14T10:05:38;26.95;;;6.65;;
51248;SDS011;39642;47.556;18.728;2024-02-14T10:08:04;22.17;;;5.87;;
51248;SDS011;39642;47.556;18.728;2024-02-14T10:10:33;21.23;;;5.47;;
51248;SDS011;39642;47.556;18.728;2024-02-14T10:13:05;14.20;;;4.50;;
51248;SDS011;39642;47.556;18.728;2024-02-14T10:15:32;19.98;;;5.15;;
51248;SDS011;39642;47.556;18.728;2024-02-14T10:17:59;25.10;;;5.43;;
51248;SDS011;39642;47.556;18.728;2024-02-14T10:20:25;23.20;;;5.10;;
51248;SDS011;39642;47.556;18.728;2024-02-14T10:22:52;21.95;;;5.68;;
51248;SDS011;39642;47.556;18.728;2024-02-14T10:25:27;19.92;;;4.45;;
51248;SDS011;39642;47.556;18.728;2024-02-14T10:27:53;19.10;;;4.95;;
51248;SDS011;39642;47.556;18.728;2024-02-14T10:30:19;15.90;;;5.05;;
51248;SDS011;39642;47.556;18.728;2024-02-14T10:32:44;22.15;;;4.65;;
51248;SDS011;39642;47.556;18.728;2024-02-14T10:35:13;16.15;;;4.85;;
51248;SDS011;39642;47.556;18.728;2024-02-14T10:37:40;16.27;;;5.12;;
51248;SDS011;39642;47.556;18.728;2024-02-14T10:40:06;18.67;;;5.05;;
51248;SDS011;39642;47.556;18.728;2024-02-14T10:42:34;17.92;;;4.60;;
51248;SDS011;39642;47.556;18.728;2024-02-14T10:45:00;34.58;;;5.75;;
51248;SDS011;39642;47.556;18.728;2024-02-14T10:47:34;28.62;;;5.22;;
51248;SDS011;39642;47.556;18.728;2024-02-14T10:52:30;25.77;;;5.15;;
51248;SDS011;39642;47.556;18.728;2024-02-14T10:54:59;21.50;;;5.00;;
51248;SDS011;39642;47.556;18.728;2024-02-14T10:57:27;28.35;;;5.32;;
51248;SDS011;39642;47.556;18.728;2024-02-14T10:59:54;19.45;;;4.47;;
51248;SDS011;39642;47.556;18.728;2024-02-14T11:02:23;22.27;;;4.72;;
51248;SDS011;39642;47.556;18.728;2024-02-14T11:04:49;21.60;;;4.45;;
51248;SDS011;39642;47.556;18.728;2024-02-14T11:07:21;21.90;;;4.87;;
51248;SDS011;39642;47.556;18.728;2024-02-14T11:10:08;22.95;;;4.75;;
51248;SDS011;39642;47.556;18.728;2024-02-14T11:12:35;20.15;;;4.57;;
51248;SDS011;39642;47.556;18.728;2024-02-14T11:15:08;20.52;;;4.50;;
51248;SDS011;39642;47.556;18.728;2024-02-14T11:24:12;25.90;;;5.37;;
51248;SDS011;39642;47.556;18.728;2024-02-14T11:26:45;18.73;;;5.30;;
51248;SDS011;39642;47.556;18.728;2024-02-14T11:29:17;15.15;;;4.12;;
51248;SDS011;39642;47.556;18.728;2024-02-14T11:31:46;17.55;;;4.10;;
51248;SDS011;39642;47.556;18.728;2024-02-14T11:34:16;20.98;;;4.82;;
51248;SDS011;39642;47.556;18.728;2024-02-14T11:36:43;25.60;;;4.68;;
51248;SDS011;39642;47.556;18.728;2024-02-14T11:39:11;20.98;;;3.95;;
51248;SDS011;39642;47.556;18.728;2024-02-14T11:41:37;32.70;;;5.47;;
51248;SDS011;39642;47.556;18.728;2024-02-14T11:44:04;24.85;;;4.53;;
51248;SDS011;39642;47.556;18.728;2024-02-14T11:46:30;21.27;;;4.25;;
51248;SDS011;39642;47.556;18.728;2024-02-14T11:48:58;30.00;;;4.20;;
51248;SDS011;39642;47.556;18.728;2024-02-14T11:51:27;29.77;;;4.47;;
51248;SDS011;39642;47.556;18.728;2024-02-14T11:53:53;18.15;;;4.15;;
51248;SDS011;39642;47.556;18.728;2024-02-14T11:56:21;21.58;;;4.03;;
51248;SDS011;39642;47.556;18.728;2024-02-14T11:58:48;22.65;;;4.22;;
51248;SDS011;39642;47.556;18.728;2024-02-14T12:01:16;18.98;;;3.92;;
51248;SDS011;39642;47.556;18.728;2024-02-14T12:03:43;22.08;;;4.30;;
51248;SDS011;39642;47.556;18.728;2024-02-14T12:06:10;16.08;;;3.80;;
51248;SDS011;39642;47.556;18.728;2024-02-14T12:08:36;18.27;;;3.75;;
51248;SDS011;39642;47.556;18.728;2024-02-14T12:11:03;20.27;;;3.97;;
51248;SDS011;39642;47.556;18.728;2024-02-14T12:13:30;15.70;;;3.05;;
51248;SDS011;39642;47.556;18.728;2024-02-14T12:15:59;15.65;;;3.60;;
51248;SDS011;39642;47.556;18.728;2024-02-14T12:18:25;19.12;;;3.40;;
51248;SDS011;39642;47.556;18.728;2024-02-14T12:20:51;16.05;;;3.70;;
51248;SDS011;39642;47.556;18.728;2024-02-14T12:23:17;19.10;;;3.30;;
51248;SDS011;39642;47.556;18.728;2024-02-14T12:25:44;14.57;;;3.50;;
51248;SDS011;39642;47.556;18.728;2024-02-14T12:28:18;17.05;;;3.40;;
51248;SDS011;39642;47.556;18.728;2024-02-14T12:30:45;14.07;;;3.20;;
51248;SDS011;39642;47.556;18.728;2024-02-14T12:33:14;13.23;;;3.30;;
51248;SDS011;39642;47.556;18.728;2024-02-14T12:35:41;30.10;;;5.07;;
51248;SDS011;39642;47.556;18.728;2024-02-14T12:38:09;18.33;;;3.65;;
51248;SDS011;39642;47.556;18.728;2024-02-14T12:40:35;27.92;;;4.45;;
51248;SDS011;39642;47.556;18.728;2024-02-14T12:43:02;29.42;;;5.05;;
51248;SDS011;39642;47.556;18.728;2024-02-14T12:45:28;24.15;;;4.25;;
51248;SDS011;39642;47.556;18.728;2024-02-14T12:47:55;23.80;;;4.30;;
51248;SDS011;39642;47.556;18.728;2024-02-14T12:50:23;32.15;;;4.70;;
51248;SDS011;39642;47.556;18.728;2024-02-14T12:52:51;27.15;;;4.80;;
51248;SDS011;39642;47.556;18.728;2024-02-14T12:55:17;44.38;;;5.22;;
51248;SDS011;39642;47.556;18.728;2024-02-14T12:57:44;32.95;;;5.40;;
51248;SDS011;39642;47.556;18.728;2024-02-14T13:00:11;37.35;;;6.45;;
51248;SDS011;39642;47.556;18.728;2024-02-14T13:02:37;35.17;;;5.40;;
51248;SDS011;39642;47.556;18.728;2024-02-14T13:05:06;32.67;;;6.03;;
51248;SDS011;39642;47.556;18.728;2024-02-14T13:07:33;32.05;;;5.07;;
51248;SDS011;39642;47.556;18.728;2024-02-14T13:09:59;29.17;;;5.45;;
51248;SDS011;39642;47.556;18.728;2024-02-14T13:12:26;28.75;;;5.97;;
51248;SDS011;39642;47.556;18.728;2024-02-14T13:14:52;26.75;;;4.55;;
51248;SDS011;39642;47.556;18.728;2024-02-14T13:17:19;25.33;;;4.50;;
51248;SDS011;39642;47.556;18.728;2024-02-14T13:19:45;24.55;;;4.55;;
51248;SDS011;39642;47.556;18.728;2024-02-14T13:22:11;24.05;;;4.75;;
51248;SDS011;39642;47.556;18.728;2024-02-14T13:24:37;22.35;;;4.60;;
51248;SDS011;39642;47.556;18.728;2024-02-14T13:27:03;28.90;;;5.15;;
51248;SDS011;39642;47.556;18.728;2024-02-14T13:29:29;23.75;;;4.60;;
51248;SDS011;39642;47.556;18.728;2024-02-14T13:31:55;24.10;;;4.18;;
51248;SDS011;39642;47.556;18.728;2024-02-14T13:34:21;22.40;;;4.68;;
51248;SDS011;39642;47.556;18.728;2024-02-14T13:36:47;21.87;;;4.57;;
51248;SDS011;39642;47.556;18.728;2024-02-14T13:39:13;26.30;;;4.60;;
51248;SDS011;39642;47.556;18.728;2024-02-14T13:41:39;26.92;;;4.45;;
51248;SDS011;39642;47.556;18.728;2024-02-14T13:44:06;19.33;;;4.47;;
51248;SDS011;39642;47.556;18.728;2024-02-14T13:46:34;19.60;;;4.25;;
51248;SDS011;39642;47.556;18.728;2024-02-14T13:49:00;23.30;;;4.70;;
51248;SDS011;39642;47.556;18.728;2024-02-14T13:51:26;21.48;;;4.35;;
51248;SDS011;39642;47.556;18.728;2024-02-14T13:53:55;22.48;;;4.53;;
51248;SDS011;39642;47.556;18.728;2024-02-14T13:56:21;20.95;;;4.32;;
51248;SDS011;39642;47.556;18.728;2024-02-14T13:58:48;32.15;;;5.53;;
51248;SDS011;39642;47.556;18.728;2024-02-14T14:01:17;29.42;;;4.75;;
51248;SDS011;39642;47.556;18.728;2024-02-14T14:03:43;26.40;;;4.60;;
51248;SDS011;39642;47.556;18.728;2024-02-14T14:06:09;27.85;;;5.00;;
51248;SDS011;39642;47.556;18.728;2024-02-14T14:08:35;17.75;;;4.22;;
51248;SDS011;39642;47.556;18.728;2024-02-14T14:11:04;18.73;;;3.85;;
51248;SDS011;39642;47.556;18.728;2024-02-14T14:13:30;13.30;;;3.70;;
51248;SDS011;39642;47.556;18.728;2024-02-14T14:15:59;23.25;;;4.32;;
51248;SDS011;39642;47.556;18.728;2024-02-14T14:18:25;19.15;;;4.15;;
51248;SDS011;39642;47.556;18.728;2024-02-14T14:20:51;18.58;;;3.30;;
51248;SDS011;39642;47.556;18.728;2024-02-14T14:23:18;22.30;;;4.32;;
51248;SDS011;39642;47.556;18.728;2024-02-14T14:25:44;28.92;;;4.78;;
51248;SDS011;39642;47.556;18.728;2024-02-14T14:28:10;19.92;;;4.78;;
51248;SDS011;39642;47.556;18.728;2024-02-14T14:30:36;21.02;;;4.82;;
51248;SDS011;39642;47.556;18.728;2024-02-14T14:33:02;18.35;;;4.55;;
51248;SDS011;39642;47.556;18.728;2024-02-14T14:35:29;22.73;;;4.65;;
51248;SDS011;39642;47.556;18.728;2024-02-14T14:37:59;17.48;;;4.20;;
51248;SDS011;39642;47.556;18.728;2024-02-14T14:40:25;20.85;;;4.30;;
51248;SDS011;39642;47.556;18.728;2024-02-14T14:42:52;26.58;;;5.45;;
51248;SDS011;39642;47.556;18.728;2024-02-14T14:45:18;20.90;;;4.87;;
51248;SDS011;39642;47.556;18.728;2024-02-14T14:47:45;28.62;;;5.22;;
51248;SDS011;39642;47.556;18.728;2024-02-14T14:50:11;26.83;;;4.68;;